Time;durP1;ratioP1;P1;durP2;ratioP2;P2;SDS_P1;SDS_P2;PMS_P1;PMS_P2;Temp;Humidity;BMP_temperature;BMP_pressure;BME280_temperature;BME280_humidity;BME280_pressure;Samples;Min_cycle;Max_cycle;Signal;HPM_P1;HPM_P2
2021/12/09 00:01:44;;;;;;;;;;;22.60;99.90;;;;;;5102750;28;19915;-61
2021/12/09 00:04:13;;;;;;;;;;;22.70;99.70;;;;;;5094220;28;19970;-61
2021/12/09 00:06:42;;;;;;;;;;;22.80;99.40;;;;;;5094281;28;19908;-65
2021/12/09 00:09:10;;;;;;;;;;;23.00;98.90;;;;;;5094662;28;19923;-61
2021/12/09 00:11:43;;;;;;;;;;;23.30;98.80;;;;;;5105880;28;19912;-62
2021/12/09 00:14:19;;;;;;;;;;;23.30;98.00;;;;;;5100479;28;19995;-62
2021/12/09 00:16:46;;;;;;;;;;;23.30;98.60;;;;;;5101071;28;20296;-62
2021/12/09 00:19:14;;;;;;;;;;;23.50;98.70;;;;;;5102729;28;19918;-62
2021/12/09 00:21:40;;;;;;;;;;;23.80;98.50;;;;;;5084748;28;19911;-61
2021/12/09 00:24:07;;;;;;;;;;;23.90;97.90;;;;;;5093591;28;19916;-62
2021/12/09 00:26:34;;;;;;;;;;;23.90;98.10;;;;;;5111225;28;19919;-62
2021/12/09 00:29:01;;;;;;;;;;;23.70;98.20;;;;;;5096021;28;19919;-61
2021/12/09 00:31:29;;;;;;;;;;;23.70;98.00;;;;;;5094295;28;19912;-62
2021/12/09 00:33:58;;;;;;;;;;;23.80;97.70;;;;;;5093734;28;20269;-65
2021/12/09 00:36:27;;;;;;;;;;;24.10;97.90;;;;;;5093595;28;19908;-61
2021/12/09 00:38:55;;;;;;;;;;;24.30;97.50;;;;;;5102079;28;20380;-62
2021/12/09 00:41:22;;;;;;;;;;;24.20;97.10;;;;;;5104336;28;19922;-62
2021/12/09 00:43:48;;;;;;;;;;;24.30;96.50;;;;;;5107473;28;20403;-62
2021/12/09 00:46:15;;;;;;;;;;;24.60;96.20;;;;;;5113886;28;19912;-61
2021/12/09 00:48:42;;;;;;;;;;;24.60;95.70;;;;;;5095840;28;19929;-62
2021/12/09 00:51:09;;;;;;;;;;;24.40;94.80;;;;;;5114086;28;19912;-61
2021/12/09 00:53:36;;;;;;;;;;;24.40;95.20;;;;;;5111548;28;19922;-62
2021/12/09 00:56:04;;;;;;;;;;;24.40;96.00;;;;;;5113770;28;19943;-62
2021/12/09 00:58:31;;;;;;;;;;;24.40;95.50;;;;;;5113632;28;19908;-62
2021/12/09 01:00:58;;;;;;;;;;;24.80;96.10;;;;;;5109429;28;19919;-62
2021/12/09 01:03:24;;;;;;;;;;;25.20;94.70;;;;;;5103075;28;19927;-61
2021/12/09 01:05:51;;;;;;;;;;;25.50;95.00;;;;;;5102682;28;19951;-62
2021/12/09 01:08:18;;;;;;;;;;;25.30;93.70;;;;;;5101063;28;19924;-62
2021/12/09 01:10:45;;;;;;;;;;;25.20;94.50;;;;;;5084721;28;20061;-62
2021/12/09 01:13:12;;;;;;;;;;;25.10;94.70;;;;;;5102644;28;19908;-61
2021/12/09 01:15:39;;;;;;;;;;;25.10;93.60;;;;;;5102567;28;20232;-62
2021/12/09 01:18:06;;;;;;;;;;;25.10;94.00;;;;;;5100462;28;19908;-61
2021/12/09 01:20:33;;;;;;;;;;;25.00;93.40;;;;;;5104001;28;19912;-62
2021/12/09 01:23:02;;;;;;;;;;;25.10;94.00;;;;;;5101880;28;19912;-64
2021/12/09 01:25:35;;;;;;;;;;;25.20;94.20;;;;;;5103067;28;19915;-61
2021/12/09 01:28:03;;;;;;;;;;;25.30;94.40;;;;;;5102331;28;19909;-61
2021/12/09 01:30:30;;;;;;;;;;;25.60;94.70;;;;;;5100711;28;19908;-61
2021/12/09 01:32:58;;;;;;;;;;;25.50;93.20;;;;;;5084129;28;20002;-61
2021/12/09 01:35:27;;;;;;;;;;;25.60;92.80;;;;;;5100223;28;19915;-61
2021/12/09 01:37:57;;;;;;;;;;;26.00;93.90;;;;;;5101109;28;19983;-61
2021/12/09 01:40:24;;;;;;;;;;;26.30;93.10;;;;;;5101286;28;19915;-62
2021/12/09 01:42:51;;;;;;;;;;;26.40;92.60;;;;;;5084610;28;19911;-61
2021/12/09 01:45:18;;;;;;;;;;;26.20;93.40;;;;;;5101496;28;19958;-61
2021/12/09 01:47:45;;;;;;;;;;;26.20;93.80;;;;;;5100948;28;19918;-63
2021/12/09 01:50:12;;;;;;;;;;;26.10;93.50;;;;;;5103361;28;20360;-61
2021/12/09 01:52:39;;;;;;;;;;;26.10;93.50;;;;;;5101406;28;19920;-62
2021/12/09 01:55:06;;;;;;;;;;;26.10;92.80;;;;;;5082788;28;19961;-61
2021/12/09 01:57:33;;;;;;;;;;;25.90;92.50;;;;;;5082748;28;20386;-61
2021/12/09 02:00:00;;;;;;;;;;;25.70;93.50;;;;;;5096983;28;19908;-61
2021/12/09 02:02:27;;;;;;;;;;;25.60;93.60;;;;;;5100375;28;19916;-61
2021/12/09 02:04:54;;;;;;;;;;;25.70;94.20;;;;;;5100879;28;20025;-61
2021/12/09 02:07:21;;;;;;;;;;;26.30;94.20;;;;;;5102362;28;20011;-62
2021/12/09 02:09:48;;;;;;;;;;;26.20;92.40;;;;;;5099780;28;20007;-63
2021/12/09 02:12:15;;;;;;;;;;;26.10;92.90;;;;;;5103304;28;20348;-61
2021/12/09 02:14:43;;;;;;;;;;;26.00;92.10;;;;;;5098584;28;19957;-63
2021/12/09 02:17:12;;;;;;;;;;;25.80;92.50;;;;;;5115119;28;19991;-61
2021/12/09 02:19:45;;;;;;;;;;;25.90;92.80;;;;;;5089157;28;19912;-64
2021/12/09 02:22:14;;;;;;;;;;;25.90;92.80;;;;;;5110637;28;19912;-66
2021/12/09 02:24:41;;;;;;;;;;;25.90;92.80;;;;;;5095884;28;19912;-65
2021/12/09 02:27:08;;;;;;;;;;;25.90;92.60;;;;;;5110439;28;20265;-65
2021/12/09 02:29:37;;;;;;;;;;;25.90;92.20;;;;;;5097468;28;19931;-66
2021/12/09 02:32:04;;;;;;;;;;;26.10;92.60;;;;;;5100969;28;19912;-65
2021/12/09 02:34:31;;;;;;;;;;;26.20;92.70;;;;;;5107024;28;19911;-65
2021/12/09 02:36:58;;;;;;;;;;;26.30;92.30;;;;;;5116184;28;19994;-65
2021/12/09 02:39:25;;;;;;;;;;;26.40;93.30;;;;;;5116043;28;20040;-66
2021/12/09 02:41:52;;;;;;;;;;;26.30;93.40;;;;;;5113546;28;19916;-66
2021/12/09 02:44:20;;;;;;;;;;;26.00;93.70;;;;;;5116003;28;19923;-65
2021/12/09 02:46:48;;;;;;;;;;;25.70;93.90;;;;;;5116132;28;19908;-66
2021/12/09 02:49:16;;;;;;;;;;;25.50;94.50;;;;;;5096717;28;20360;-65
2021/12/09 02:51:43;;;;;;;;;;;25.20;94.90;;;;;;5108757;28;19965;-65
2021/12/09 02:54:11;;;;;;;;;;;25.20;95.20;;;;;;5110481;28;20011;-66
2021/12/09 02:56:38;;;;;;;;;;;25.20;95.10;;;;;;5096529;28;19912;-65
2021/12/09 02:59:05;;;;;;;;;;;25.20;95.50;;;;;;5078930;28;20402;-65
2021/12/09 03:01:33;;;;;;;;;;;25.20;95.30;;;;;;5095334;28;20019;-68
2021/12/09 03:04:02;;;;;;;;;;;25.40;95.60;;;;;;5077328;28;19916;-65
2021/12/09 03:06:39;;;;;;;;;;;25.60;95.00;;;;;;5107335;28;19967;-66
2021/12/09 03:09:08;;;;;;;;;;;25.60;95.00;;;;;;5098963;28;19958;-67
2021/12/09 03:11:36;;;;;;;;;;;25.50;95.20;;;;;;5095890;28;20439;-65
2021/12/09 03:14:04;;;;;;;;;;;25.80;94.90;;;;;;5088531;28;19943;-65
2021/12/09 03:16:32;;;;;;;;;;;25.80;95.00;;;;;;5097679;28;19914;-64
2021/12/09 03:19:03;;;;;;;;;;;25.60;94.80;;;;;;5097082;28;19912;-65
2021/12/09 03:21:31;;;;;;;;;;;25.50;94.70;;;;;;5080761;28;19908;-64
2021/12/09 03:24:00;;;;;;;;;;;25.60;95.10;;;;;;5114563;28;19911;-64
2021/12/09 03:26:36;;;;;;;;;;;26.20;95.10;;;;;;5097449;28;20265;-64
2021/12/09 03:29:05;;;;;;;;;;;26.80;95.20;;;;;;5096029;28;19915;-64
2021/12/09 03:31:32;;;;;;;;;;;27.00;94.20;;;;;;5094876;28;19912;-64
2021/12/09 03:34:00;;;;;;;;;;;26.80;93.90;;;;;;5094768;28;19915;-64
2021/12/09 03:36:28;;;;;;;;;;;26.40;94.20;;;;;;5094904;28;19908;-64
2021/12/09 03:38:57;;;;;;;;;;;26.20;94.40;;;;;;5076548;28;20361;-64
2021/12/09 03:41:26;;;;;;;;;;;26.40;94.40;;;;;;5077582;28;19909;-64
2021/12/09 03:43:54;;;;;;;;;;;26.50;94.60;;;;;;5115412;28;19912;-64
2021/12/09 03:46:22;;;;;;;;;;;26.50;94.40;;;;;;5096955;28;19912;-64
2021/12/09 03:48:49;;;;;;;;;;;26.40;94.80;;;;;;5115057;28;19918;-64
2021/12/09 03:51:16;;;;;;;;;;;26.30;94.50;;;;;;5115058;28;19915;-64
2021/12/09 03:53:43;;;;;;;;;;;26.10;94.30;;;;;;5114588;28;20487;-64
2021/12/09 03:56:10;;;;;;;;;;;25.90;95.00;;;;;;5114796;28;20104;-64
2021/12/09 03:58:37;;;;;;;;;;;25.60;95.00;;;;;;5114661;28;20151;-63
2021/12/09 04:01:04;;;;;;;;;;;25.70;95.00;;;;;;5114647;28;19931;-66
2021/12/09 04:03:31;;;;;;;;;;;25.80;94.90;;;;;;5109113;28;19926;-65
2021/12/09 04:05:58;;;;;;;;;;;26.10;95.10;;;;;;5084338;28;20317;-65
2021/12/09 04:08:25;;;;;;;;;;;26.40;94.30;;;;;;5109288;28;19912;-64
2021/12/09 04:10:52;;;;;;;;;;;26.50;94.30;;;;;;5114516;28;20252;-67
2021/12/09 04:13:19;;;;;;;;;;;27.00;94.00;;;;;;5096399;28;19911;-66
2021/12/09 04:15:46;;;;;;;;;;;27.00;93.40;;;;;;5114277;28;20336;-67
2021/12/09 04:18:13;;;;;;;;;;;26.70;93.90;;;;;;5096323;28;19907;-64
2021/12/09 04:20:40;;;;;;;;;;;26.30;93.70;;;;;;5114211;28;19912;-65
2021/12/09 04:23:07;;;;;;;;;;;26.20;94.30;;;;;;5114126;28;20368;-65
2021/12/09 04:25:34;;;;;;;;;;;26.00;94.30;;;;;;5114240;28;19912;-65
2021/12/09 04:28:01;;;;;;;;;;;25.50;94.60;;;;;;5114231;28;19914;-64
2021/12/09 04:30:29;;;;;;;;;;;25.40;95.30;;;;;;5114115;28;20411;-63
2021/12/09 04:32:56;;;;;;;;;;;25.10;94.80;;;;;;5114020;28;19908;-64
2021/12/09 04:35:23;;;;;;;;;;;24.90;95.00;;;;;;5113733;28;20397;-65
2021/12/09 04:37:50;;;;;;;;;;;24.80;95.50;;;;;;5113334;28;19911;-66
2021/12/09 04:40:17;;;;;;;;;;;24.80;95.40;;;;;;5113936;28;20273;-64
2021/12/09 04:42:44;;;;;;;;;;;25.20;95.30;;;;;;5096560;28;19920;-65
2021/12/09 04:45:15;;;;;;;;;;;25.80;94.90;;;;;;5105146;28;20402;-64
2021/12/09 04:48:02;;;;;;;;;;;26.50;94.30;;;;;;5112319;28;19915;-64
2021/12/09 04:50:49;;;;;;;;;;;27.00;93.50;;;;;;5113807;28;19908;-65
2021/12/09 04:53:28;;;;;;;;;;;27.30;93.40;;;;;;5111022;28;20042;-64
2021/12/09 04:56:12;;;;;;;;;;;27.30;93.20;;;;;;5092681;28;20283;-65
2021/12/09 04:58:52;;;;;;;;;;;27.00;93.30;;;;;;5073372;28;19908;-65
2021/12/09 05:01:48;;;;;;;;;;;26.80;93.60;;;;;;5076474;28;19908;-64
2021/12/09 05:04:40;;;;;;;;;;;26.50;94.30;;;;;;5093977;28;19920;-64
2021/12/09 05:07:18;;;;;;;;;;;26.60;93.70;;;;;;5098005;28;20380;-64
2021/12/09 05:10:04;;;;;;;;;;;26.40;94.20;;;;;;5075558;28;19908;-66
2021/12/09 05:12:38;;;;;;;;;;;26.20;94.20;;;;;;5093557;28;19915;-63
2021/12/09 05:15:16;;;;;;;;;;;25.80;94.40;;;;;;5101431;28;19962;-63
2021/12/09 05:17:45;;;;;;;;;;;25.30;94.60;;;;;;5094646;28;19908;-62
2021/12/09 05:20:14;;;;;;;;;;;24.90;95.10;;;;;;5113075;28;19908;-64
2021/12/09 05:22:41;;;;;;;;;;;24.60;95.20;;;;;;5092655;28;19981;-63
2021/12/09 05:25:08;;;;;;;;;;;24.20;95.60;;;;;;5112952;28;19908;-63
2021/12/09 05:32:07;;;;;;;;;;;23.30;95.40;;;;;;5092466;28;19916;-63
2021/12/09 05:33:25;;;;;;;;;;;22.90;96.90;;;;;;5092076;28;20365;-65
2021/12/09 05:35:52;;;;;;;;;;;22.60;97.90;;;;;;5092882;28;19958;-62
2021/12/09 05:38:19;;;;;;;;;;;22.40;99.30;;;;;;5092731;28;19935;-63
2021/12/09 05:40:46;;;;;;;;;;;22.10;98.70;;;;;;5092636;28;20357;-64
2021/12/09 05:43:13;;;;;;;;;;;21.80;99.90;;;;;;5092540;28;20010;-64
2021/12/09 05:45:41;;;;;;;;;;;21.80;99.90;;;;;;5074413;28;19908;-64
2021/12/09 05:48:08;;;;;;;;;;;22.10;99.90;;;;;;5076248;28;19912;-64
2021/12/09 05:50:35;;;;;;;;;;;21.70;99.90;;;;;;5078532;28;20287;-64
2021/12/09 05:53:01;;;;;;;;;;;21.60;99.90;;;;;;5096206;28;19920;-66
2021/12/09 05:55:28;;;;;;;;;;;21.30;99.90;;;;;;5096480;28;19970;-64
2021/12/09 05:57:55;;;;;;;;;;;21.10;99.90;;;;;;5096530;28;19908;-65
2021/12/09 06:00:22;;;;;;;;;;;21.00;99.90;;;;;;5096384;28;19912;-61
2021/12/09 06:02:48;;;;;;;;;;;21.50;99.90;;;;;;5096376;28;19923;-61
2021/12/09 06:05:15;;;;;;;;;;;21.60;99.90;;;;;;5096292;28;20292;-61
2021/12/09 06:07:43;;;;;;;;;;;21.60;99.90;;;;;;5115383;28;20013;-61
2021/12/09 06:10:12;;;;;;;;;;;21.50;99.90;;;;;;5116594;28;19908;-61
2021/12/09 06:12:40;;;;;;;;;;;21.80;99.90;;;;;;5116415;28;19911;-61
2021/12/09 06:15:07;;;;;;;;;;;22.10;99.90;;;;;;5116703;28;19907;-61
2021/12/09 06:17:34;;;;;;;;;;;22.50;99.90;;;;;;5112958;28;19955;-61
2021/12/09 06:20:00;;;;;;;;;;;22.70;99.90;;;;;;5077948;28;19908;-61
2021/12/09 06:22:27;;;;;;;;;;;22.80;99.90;;;;;;5095945;28;19977;-61
2021/12/09 06:24:54;;;;;;;;;;;22.50;99.90;;;;;;5096047;28;19912;-61
2021/12/09 06:27:21;;;;;;;;;;;22.30;99.90;;;;;;5100927;28;19918;-61
2021/12/09 06:29:47;;;;;;;;;;;22.10;99.90;;;;;;5100281;28;19965;-61
2021/12/09 06:32:14;;;;;;;;;;;21.90;99.90;;;;;;5105423;28;19907;-61
2021/12/09 06:34:41;;;;;;;;;;;21.70;99.90;;;;;;5116106;28;19908;-60
2021/12/09 06:37:08;;;;;;;;;;;21.60;99.90;;;;;;5104919;28;19920;-60
2021/12/09 06:39:34;;;;;;;;;;;21.40;99.90;;;;;;5102351;28;19966;-61
2021/12/09 06:42:01;;;;;;;;;;;21.30;99.90;;;;;;5095705;28;20467;-60
2021/12/09 06:44:28;;;;;;;;;;;21.20;99.90;;;;;;5095505;28;19912;-61
2021/12/09 06:46:56;;;;;;;;;;;21.10;99.90;;;;;;5095540;28;19909;-61
2021/12/09 06:49:23;;;;;;;;;;;20.90;99.90;;;;;;5095369;28;19916;-61
2021/12/09 06:51:50;;;;;;;;;;;20.90;99.90;;;;;;5095479;28;19912;-61
2021/12/09 06:54:17;;;;;;;;;;;20.90;99.90;;;;;;5077232;28;19916;-62
2021/12/09 06:56:43;;;;;;;;;;;20.80;99.90;;;;;;5095404;28;20322;-60
2021/12/09 06:59:10;;;;;;;;;;;20.80;99.90;;;;;;5076286;28;19935;-60
2021/12/09 07:01:38;;;;;;;;;;;20.70;99.90;;;;;;5095216;28;19908;-63
2021/12/09 07:04:05;;;;;;;;;;;20.60;99.90;;;;;;5095172;28;19916;-65
2021/12/09 07:06:32;;;;;;;;;;;20.60;99.90;;;;;;5077418;28;19908;-62
2021/12/09 07:09:00;;;;;;;;;;;20.60;99.90;;;;;;5095254;28;19908;-62
2021/12/09 07:11:29;;;;;;;;;;;20.50;99.90;;;;;;5095118;28;20001;-60
2021/12/09 07:13:56;;;;;;;;;;;20.60;99.90;;;;;;5095093;28;19908;-61
2021/12/09 07:16:23;;;;;;;;;;;20.60;99.90;;;;;;5095066;28;20360;-61
2021/12/09 07:18:49;;;;;;;;;;;20.60;99.90;;;;;;5094888;28;19919;-61
2021/12/09 07:21:16;;;;;;;;;;;20.50;99.90;;;;;;5094995;28;19961;-62
2021/12/09 07:23:43;;;;;;;;;;;20.50;99.90;;;;;;5094825;28;20344;-61
2021/12/09 07:26:10;;;;;;;;;;;20.50;99.90;;;;;;5094847;28;19912;-62
2021/12/09 07:28:37;;;;;;;;;;;20.50;99.90;;;;;;5094788;28;19946;-61
2021/12/09 07:31:03;;;;;;;;;;;20.50;99.90;;;;;;5076878;28;19908;-61
2021/12/09 07:33:30;;;;;;;;;;;20.50;99.90;;;;;;5094845;28;19908;-61
2021/12/09 07:35:57;;;;;;;;;;;20.50;99.90;;;;;;5094676;28;19908;-61
2021/12/09 07:38:24;;;;;;;;;;;20.40;99.90;;;;;;5094590;28;19908;-61
2021/12/09 07:40:51;;;;;;;;;;;20.40;99.90;;;;;;5094663;28;19908;-61
2021/12/09 07:43:17;;;;;;;;;;;20.30;99.90;;;;;;5098356;28;20007;-61
2021/12/09 07:45:44;;;;;;;;;;;20.30;99.90;;;;;;5110004;28;20280;-61
2021/12/09 07:48:11;;;;;;;;;;;20.20;99.90;;;;;;5096642;28;20320;-64
2021/12/09 07:50:38;;;;;;;;;;;20.20;99.90;;;;;;5115188;28;20244;-61
2021/12/09 07:53:05;;;;;;;;;;;20.20;99.90;;;;;;5096345;28;19965;-61
2021/12/09 07:55:32;;;;;;;;;;;20.20;99.90;;;;;;5115353;28;20418;-61
2021/12/09 07:57:59;;;;;;;;;;;20.20;99.90;;;;;;5114785;28;19976;-60
2021/12/09 08:00:27;;;;;;;;;;;20.10;99.90;;;;;;5096315;28;19918;-61
2021/12/09 08:02:54;;;;;;;;;;;20.10;99.90;;;;;;5114583;28;19915;-61
2021/12/09 08:05:21;;;;;;;;;;;20.00;99.90;;;;;;5096211;28;20326;-61
2021/12/09 08:07:48;;;;;;;;;;;20.00;99.90;;;;;;5114564;28;19915;-61
2021/12/09 08:10:15;;;;;;;;;;;19.90;99.90;;;;;;5114416;28;20301;-61
2021/12/09 08:12:42;;;;;;;;;;;19.90;99.90;;;;;;5114380;28;19915;-61
2021/12/09 08:15:09;;;;;;;;;;;19.80;99.90;;;;;;5114535;28;20186;-61
2021/12/09 08:20:13;;;;;;;;;;;19.70;99.90;;;;;;5114309;28;19961;-61
2021/12/09 08:22:40;;;;;;;;;;;19.70;99.90;;;;;;5095670;28;20376;-61
2021/12/09 08:25:07;;;;;;;;;;;19.70;99.90;;;;;;5103456;28;19908;-61
2021/12/09 08:27:34;;;;;;;;;;;19.70;99.90;;;;;;5075665;28;20373;-61
2021/12/09 08:30:02;;;;;;;;;;;19.70;99.90;;;;;;5093794;28;19908;-61
2021/12/09 08:32:29;;;;;;;;;;;19.60;99.90;;;;;;5093766;28;19915;-61
2021/12/09 08:34:56;;;;;;;;;;;19.60;99.90;;;;;;5093816;28;19914;-61
2021/12/09 08:37:23;;;;;;;;;;;19.60;99.90;;;;;;5093666;28;19915;-61
2021/12/09 08:39:51;;;;;;;;;;;19.70;99.90;;;;;;5093539;28;19999;-61
2021/12/09 08:42:17;;;;;;;;;;;19.70;99.90;;;;;;5093651;28;19915;-61
2021/12/09 08:44:44;;;;;;;;;;;19.70;99.90;;;;;;5093403;28;19937;-64
2021/12/09 08:47:11;;;;;;;;;;;19.70;99.90;;;;;;5100770;28;19938;-62
2021/12/09 08:49:38;;;;;;;;;;;19.70;99.90;;;;;;5109494;28;19939;-61
2021/12/09 08:52:05;;;;;;;;;;;19.80;99.90;;;;;;5095797;28;19908;-63
2021/12/09 08:54:31;;;;;;;;;;;19.80;99.90;;;;;;5093234;28;19920;-61
2021/12/09 08:56:58;;;;;;;;;;;19.80;99.90;;;;;;5093442;28;20108;-62
2021/12/09 08:59:26;;;;;;;;;;;19.90;99.90;;;;;;5093263;28;20010;-61
2021/12/09 09:01:54;;;;;;;;;;;19.90;99.90;;;;;;5093459;28;20433;-60
2021/12/09 09:04:21;;;;;;;;;;;19.90;99.90;;;;;;5093898;28;19922;-61
2021/12/09 09:06:51;;;;;;;;;;;19.90;99.90;;;;;;5093268;28;19915;-62
2021/12/09 09:09:17;;;;;;;;;;;19.90;99.90;;;;;;5093572;28;19915;-63
2021/12/09 09:11:44;;;;;;;;;;;19.90;99.90;;;;;;5093408;28;19908;-61
2021/12/09 09:14:11;;;;;;;;;;;19.80;99.90;;;;;;5093143;28;20514;-61
2021/12/09 09:16:41;;;;;;;;;;;19.80;99.90;;;;;;5093185;28;20376;-61
2021/12/09 09:19:08;;;;;;;;;;;19.70;99.90;;;;;;5092917;28;19999;-61
2021/12/09 09:21:35;;;;;;;;;;;19.70;99.90;;;;;;5093204;28;20284;-61
2021/12/09 09:24:03;;;;;;;;;;;19.70;99.90;;;;;;5107804;28;19966;-61
2021/12/09 09:26:30;;;;;;;;;;;19.70;99.90;;;;;;5079158;28;19957;-61
2021/12/09 09:28:58;;;;;;;;;;;19.70;99.90;;;;;;5109754;28;20340;-61
2021/12/09 09:31:27;;;;;;;;;;;19.70;99.90;;;;;;5117636;28;19908;-61
2021/12/09 09:33:54;;;;;;;;;;;19.60;99.90;;;;;;5099736;28;19914;-61
2021/12/09 09:36:21;;;;;;;;;;;19.60;99.90;;;;;;5117519;28;19908;-61
2021/12/09 09:38:47;;;;;;;;;;;19.60;99.90;;;;;;5117372;28;19914;-61
2021/12/09 09:41:17;;;;;;;;;;;19.70;99.90;;;;;;5103816;28;19916;-61
2021/12/09 09:46:19;;;;;;;;;;;19.70;99.90;;;;;;5096958;28;19993;-61
2021/12/09 09:48:46;;;;;;;;;;;19.60;99.90;;;;;;5096934;28;19958;-61
2021/12/09 09:51:13;;;;;;;;;;;19.60;99.90;;;;;;5096839;28;19908;-61
2021/12/09 09:53:41;;;;;;;;;;;19.60;99.90;;;;;;5075062;28;20007;-61
2021/12/09 09:56:13;;;;;;;;;;;19.60;99.90;;;;;;5076549;28;19952;-61
2021/12/09 09:58:41;;;;;;;;;;;19.50;99.90;;;;;;5076335;28;19944;-61
2021/12/09 10:01:07;;;;;;;;;;;19.50;99.90;;;;;;5086080;28;19912;-61
2021/12/09 10:03:41;;;;;;;;;;;19.50;99.90;;;;;;5078676;28;19917;-61
2021/12/09 10:06:08;;;;;;;;;;;19.50;99.90;;;;;;5076397;28;19908;-61
2021/12/09 10:08:34;;;;;;;;;;;19.50;99.90;;;;;;5076369;28;19909;-63
2021/12/09 10:11:02;;;;;;;;;;;19.50;99.90;;;;;;5076136;28;19913;-61
2021/12/09 10:13:29;;;;;;;;;;;19.50;99.90;;;;;;5075069;28;19908;-64
2021/12/09 10:15:56;;;;;;;;;;;19.40;99.90;;;;;;5075010;28;19915;-61
2021/12/09 10:18:32;;;;;;;;;;;19.40;99.90;;;;;;5076042;28;19908;-62
2021/12/09 10:20:59;;;;;;;;;;;19.30;99.90;;;;;;5076091;28;19956;-62
2021/12/09 10:23:37;;;;;;;;;;;19.30;99.90;;;;;;5075826;28;19965;-61
2021/12/09 10:26:11;;;;;;;;;;;19.30;99.90;;;;;;5075978;28;19915;-61
2021/12/09 10:28:40;;;;;;;;;;;19.30;99.90;;;;;;5074754;28;19986;-61
2021/12/09 10:31:09;;;;;;;;;;;19.20;99.90;;;;;;5074628;28;19908;-61
2021/12/09 10:33:59;;;;;;;;;;;19.20;99.90;;;;;;5074438;28;19951;-62
2021/12/09 10:36:59;;;;;;;;;;;19.20;99.90;;;;;;5074487;28;19983;-63
2021/12/09 10:39:30;;;;;;;;;;;19.20;99.90;;;;;;5041862;28;20381;-61
2021/12/09 10:41:57;;;;;;;;;;;19.10;99.90;;;;;;5075693;28;19914;-62
2021/12/09 10:44:31;;;;;;;;;;;19.10;99.90;;;;;;5075616;28;19912;-62
2021/12/09 10:47:08;;;;;;;;;;;19.10;99.90;;;;;;5075478;28;19962;-61
2021/12/09 10:49:45;;;;;;;;;;;19.10;99.90;;;;;;5074275;28;20376;-61
2021/12/09 10:52:41;;;;;;;;;;;19.10;99.90;;;;;;5082311;28;19995;-61
2021/12/09 10:55:12;;;;;;;;;;;19.10;99.90;;;;;;5074368;28;20392;-61
2021/12/09 10:57:39;;;;;;;;;;;19.10;99.90;;;;;;5075415;28;20288;-61
2021/12/09 11:00:15;;;;;;;;;;;19.10;99.90;;;;;;5075382;28;19995;-61
2021/12/09 11:03:00;;;;;;;;;;;19.10;99.90;;;;;;5075136;28;19908;-61
2021/12/09 11:05:27;;;;;;;;;;;19.10;99.90;;;;;;5075256;28;19951;-62
2021/12/09 11:07:54;;;;;;;;;;;19.10;99.90;;;;;;5075223;28;19913;-61
2021/12/09 11:10:24;;;;;;;;;;;19.10;99.90;;;;;;5075181;28;19908;-61
2021/12/09 11:12:55;;;;;;;;;;;19.10;99.90;;;;;;5086637;28;20354;-61
2021/12/09 11:15:23;;;;;;;;;;;19.10;99.90;;;;;;5075128;28;19916;-61
2021/12/09 11:17:52;;;;;;;;;;;19.10;99.90;;;;;;5074966;28;19920;-61
2021/12/09 11:20:37;;;;;;;;;;;19.10;99.90;;;;;;5074899;28;19908;-61
2021/12/09 11:23:22;;;;;;;;;;;19.00;99.90;;;;;;5074806;28;19989;-61
2021/12/09 11:25:50;;;;;;;;;;;19.10;99.90;;;;;;5075396;28;19913;-62
2021/12/09 11:28:16;;;;;;;;;;;19.10;99.90;;;;;;5074777;28;19940;-61
2021/12/09 11:31:04;;;;;;;;;;;19.00;99.90;;;;;;5074542;28;19915;-63
2021/12/09 11:33:33;;;;;;;;;;;19.10;99.90;;;;;;5074757;28;20094;-61
2021/12/09 11:36:02;;;;;;;;;;;19.10;99.90;;;;;;5074693;28;19958;-61
2021/12/09 11:38:45;;;;;;;;;;;19.10;99.90;;;;;;5074677;28;19909;-61
2021/12/09 11:41:32;;;;;;;;;;;19.10;99.90;;;;;;5072352;28;19917;-61
2021/12/09 11:43:59;;;;;;;;;;;19.00;99.90;;;;;;5071295;28;19912;-61
2021/12/09 11:46:25;;;;;;;;;;;19.00;99.90;;;;;;5072099;28;19990;-61
2021/12/09 11:48:52;;;;;;;;;;;19.10;99.90;;;;;;5073398;28;19908;-61
2021/12/09 11:51:19;;;;;;;;;;;19.10;99.90;;;;;;5073014;28;19940;-61
2021/12/09 11:53:46;;;;;;;;;;;19.10;99.90;;;;;;5087012;28;19969;-61
2021/12/09 11:59:26;;;;;;;;;;;19.10;99.90;;;;;;5094756;28;19915;-61
2021/12/09 12:07:55;;;;;;;;;;;19.10;99.90;;;;;;5056026;28;20399;-60
2021/12/09 12:13:39;;;;;;;;;;;19.10;99.90;;;;;;5094295;28;19915;-61
2021/12/09 12:16:24;;;;;;;;;;;19.10;99.90;;;;;;5094019;28;19908;-61
2021/12/09 12:19:02;;;;;;;;;;;19.10;99.90;;;;;;5101284;28;20231;-61
2021/12/09 12:24:31;;;;;;;;;;;19.10;99.90;;;;;;5102982;28;19955;-61
2021/12/09 12:27:13;;;;;;;;;;;19.10;99.90;;;;;;5102973;28;20355;-61
2021/12/09 12:35:44;;;;;;;;;;;19.10;99.90;;;;;;5092846;28;20276;-61
2021/12/09 12:40:57;;;;;;;;;;;19.10;99.90;;;;;;5077132;28;19931;-61
2021/12/09 12:43:30;;;;;;;;;;;19.00;99.90;;;;;;5076312;28;19912;-60
2021/12/09 12:54:16;;;;;;;;;;;18.90;99.90;;;;;;5093317;28;19976;-60
2021/12/09 12:56:54;;;;;;;;;;;18.90;99.90;;;;;;5092950;28;19962;-60
2021/12/09 12:59:23;;;;;;;;;;;18.90;99.90;;;;;;5075090;28;19917;-60
2021/12/09 13:02:06;;;;;;;;;;;18.90;99.90;;;;;;5075544;28;20362;-60
2021/12/09 13:07:45;;;;;;;;;;;18.90;99.90;;;;;;5093375;28;20048;-60
2021/12/09 13:10:26;;;;;;;;;;;18.80;99.90;;;;;;5077905;28;20367;-60
2021/12/09 13:13:30;;;;;;;;;;;18.70;99.90;;;;;;5075905;28;20280;-60
2021/12/09 13:16:37;;;;;;;;;;;18.70;99.90;;;;;;5080464;28;20384;-60
2021/12/09 13:21:42;;;;;;;;;;;18.60;99.90;;;;;;5093236;28;19987;-60
2021/12/09 13:24:33;;;;;;;;;;;18.50;99.90;;;;;;5093080;28;19938;-60
2021/12/09 13:27:37;;;;;;;;;;;18.40;99.90;;;;;;5093113;28;20356;-60
2021/12/09 13:38:37;;;;;;;;;;;18.10;99.90;;;;;;5093063;28;19909;-60
2021/12/09 13:46:56;;;;;;;;;;;16.80;99.90;;;;;;5093050;28;20383;-59
2021/12/09 13:49:41;;;;;;;;;;;16.70;99.90;;;;;;5060769;28;19908;-59
2021/12/09 13:54:06;;;;;;;;;;;16.50;99.90;;;;;;5092852;28;20288;-60
2021/12/09 13:54:54;;;;;;;;;;;16.50;99.90;;;;;;5092572;28;19916;-59
2021/12/09 13:57:31;;;;;;;;;;;16.30;99.90;;;;;;5092866;28;20412;-60
2021/12/09 13:59:58;;;;;;;;;;;16.20;99.90;;;;;;5074862;28;20257;-60
2021/12/09 14:02:26;;;;;;;;;;;16.20;99.90;;;;;;5074683;28;19915;-60
2021/12/09 14:04:55;;;;;;;;;;;16.20;99.90;;;;;;5092769;28;20437;-59
2021/12/09 14:07:36;;;;;;;;;;;16.20;99.90;;;;;;5074603;28;20379;-60
2021/12/09 14:10:05;;;;;;;;;;;16.20;99.90;;;;;;5096003;28;19931;-60
2021/12/09 14:12:41;;;;;;;;;;;16.20;99.90;;;;;;5096370;28;19915;-60
2021/12/09 14:15:12;;;;;;;;;;;16.20;99.90;;;;;;5096498;28;20384;-60
2021/12/09 14:17:42;;;;;;;;;;;16.20;99.90;;;;;;5096445;28;19995;-60
2021/12/09 14:20:18;;;;;;;;;;;16.20;99.90;;;;;;5096337;28;19954;-60
2021/12/09 14:22:47;;;;;;;;;;;16.20;99.90;;;;;;5061504;28;19915;-60
2021/12/09 14:25:25;;;;;;;;;;;16.20;99.90;;;;;;5096314;28;19915;-60
2021/12/09 14:27:53;;;;;;;;;;;16.20;99.90;;;;;;5096243;28;19961;-60
2021/12/09 14:30:21;;;;;;;;;;;16.20;99.90;;;;;;5078335;28;19941;-60
2021/12/09 14:32:48;;;;;;;;;;;16.20;99.90;;;;;;5078001;28;19908;-60
2021/12/09 14:35:23;;;;;;;;;;;16.20;99.90;;;;;;5096126;28;19908;-60
2021/12/09 14:37:51;;;;;;;;;;;16.30;99.90;;;;;;5096028;28;19912;-60
2021/12/09 14:40:20;;;;;;;;;;;16.30;99.90;;;;;;5095904;28;19908;-60
2021/12/09 14:42:49;;;;;;;;;;;16.30;99.90;;;;;;5095859;28;19908;-60
2021/12/09 14:45:16;;;;;;;;;;;16.30;99.90;;;;;;5095979;28;20006;-60
2021/12/09 14:48:03;;;;;;;;;;;16.20;99.90;;;;;;5095873;28;19951;-60
2021/12/09 14:50:33;;;;;;;;;;;16.20;99.90;;;;;;5095531;28;20269;-60
2021/12/09 14:53:00;;;;;;;;;;;16.30;99.90;;;;;;5095562;28;19920;-60
2021/12/09 14:55:28;;;;;;;;;;;16.20;99.90;;;;;;5095747;28;19908;-60
2021/12/09 14:57:59;;;;;;;;;;;16.30;99.90;;;;;;5095684;28;19995;-61
2021/12/09 15:00:37;;;;;;;;;;;16.30;99.90;;;;;;5095547;28;19912;-60
2021/12/09 15:03:05;;;;;;;;;;;16.30;99.90;;;;;;5095358;28;19923;-60
2021/12/09 15:05:33;;;;;;;;;;;16.30;99.90;;;;;;5095492;28;20372;-60
2021/12/09 15:08:06;;;;;;;;;;;16.20;99.90;;;;;;5077310;28;20007;-60
2021/12/09 15:10:33;;;;;;;;;;;16.20;99.90;;;;;;5095448;28;19915;-60
2021/12/09 15:13:01;;;;;;;;;;;16.30;99.90;;;;;;5095359;28;20015;-60
2021/12/09 15:15:29;;;;;;;;;;;16.30;99.90;;;;;;5095299;28;19908;-60
2021/12/09 15:17:59;;;;;;;;;;;16.20;99.90;;;;;;5095306;28;20403;-60
2021/12/09 15:20:32;;;;;;;;;;;16.20;99.90;;;;;;5095480;28;19912;-60
2021/12/09 15:23:15;;;;;;;;;;;16.20;99.90;;;;;;5076953;28;20272;-60
2021/12/09 15:25:43;;;;;;;;;;;16.10;99.90;;;;;;5095148;28;19908;-60
2021/12/09 15:28:13;;;;;;;;;;;16.20;99.90;;;;;;5095098;28;20356;-60
2021/12/09 15:30:49;;;;;;;;;;;16.20;99.90;;;;;;5095031;28;20006;-60
2021/12/09 15:33:17;;;;;;;;;;;16.20;99.90;;;;;;5076683;28;19908;-60